createdAt,value
2022-12-26T00:00:45.219Z,100850.97
2022-12-26T00:03:11.910Z,100848.50
2022-12-26T00:05:38.866Z,100856.81
2022-12-26T00:08:05.733Z,100861.34
2022-12-26T00:10:32.372Z,100865.25
2022-12-26T00:13:37.334Z,100861.81
2022-12-26T00:15:46.344Z,100863.03
2022-12-26T00:18:13.215Z,100863.16
2022-12-26T00:20:39.888Z,100871.38
2022-12-26T00:23:06.602Z,100870.66
2022-12-26T00:25:34.798Z,100880.66
2022-12-26T00:28:01.663Z,100888.84
2022-12-26T00:30:28.726Z,100893.13
2022-12-26T00:32:56.006Z,100890.69
2022-12-26T00:35:23.289Z,100895.31
2022-12-26T00:37:50.043Z,100900.69
2022-12-26T00:40:17.431Z,100918.78
2022-12-26T00:42:44.103Z,100928.53
2022-12-26T00:45:10.949Z,100933.19
2022-12-26T00:47:37.691Z,100927.94
2022-12-26T00:50:12.757Z,100925.63
2022-12-26T00:52:41.316Z,100939.06
2022-12-26T00:55:08.437Z,100941.84
2022-12-26T00:57:35.124Z,100955.28
2022-12-26T01:00:01.877Z,100957.13
2022-12-26T01:02:40.950Z,100962.50
2022-12-26T01:05:10.626Z,100975.81
2022-12-26T01:08:22.649Z,100977.41
2022-12-26T01:10:26.677Z,100979.59
2022-12-26T01:12:53.596Z,100988.81
2022-12-26T01:15:21.562Z,100990.03
2022-12-26T01:17:48.622Z,100990.53
2022-12-26T01:20:15.291Z,100996.53
2022-12-26T01:22:41.940Z,100999.22
2022-12-26T01:25:09.235Z,100997.50
2022-12-26T01:27:35.851Z,101004.72
2022-12-26T01:30:02.517Z,101011.56
2022-12-26T01:32:29.363Z,101013.16
2022-12-26T01:34:56.427Z,101019.03
2022-12-26T01:37:23.726Z,101019.75
2022-12-26T01:39:51.878Z,101033.97
2022-12-26T01:42:21.015Z,101023.81
2022-12-26T01:45:05.662Z,101027.25
2022-12-26T01:47:41.511Z,101037.75
2022-12-26T01:50:21.088Z,101040.44
2022-12-26T01:52:49.507Z,101048.38
2022-12-26T01:55:18.855Z,101051.81
2022-12-26T01:57:50.391Z,101061.72
2022-12-26T02:00:17.400Z,101060.75
2022-12-26T02:03:03.696Z,101068.94
2022-12-26T02:05:34.922Z,101071.50
2022-12-26T02:08:17.698Z,101083.88
2022-12-26T02:10:57.256Z,101076.66
2022-12-26T02:13:24.396Z,101082.88
2022-12-26T02:15:51.065Z,101088.75
2022-12-26T02:18:18.176Z,101088.63
2022-12-26T02:21:22.565Z,101092.06
2022-12-26T02:24:20.906Z,101095.63
2022-12-26T02:27:10.767Z,101102.84
2022-12-26T02:29:43.636Z,101112.00
2022-12-26T02:32:25.637Z,101130.09
2022-12-26T02:35:04.297Z,101129.25
2022-12-26T02:37:42.898Z,101130.69
2022-12-26T02:40:27.202Z,101129.47
2022-12-26T02:43:00.279Z,101137.03
2022-12-26T02:45:59.523Z,101140.16
2022-12-26T02:48:51.830Z,101138.72
2022-12-26T02:51:39.804Z,101144.66
2022-12-26T02:54:55.106Z,101157.47
2022-12-26T02:57:47.261Z,101161.03
2022-12-26T03:00:39.831Z,101151.13
2022-12-26T03:03:38.320Z,101163.09
2022-12-26T03:06:23.884Z,101159.88
2022-12-26T03:09:12.230Z,101161.19
2022-12-26T03:12:02.982Z,101160.47
2022-12-26T03:14:52.481Z,101158.03
2022-12-26T03:17:44.860Z,101161.91
2022-12-26T03:20:16.606Z,101170.22
2022-12-26T03:22:43.181Z,101162.34
2022-12-26T03:25:33.449Z,101170.53
2022-12-26T03:28:00.265Z,101167.22
2022-12-26T03:30:45.929Z,101162.94
2022-12-26T03:33:31.388Z,101164.00
2022-12-26T03:35:59.199Z,101154.34
2022-12-26T03:38:56.136Z,101162.53
2022-12-26T03:41:55.731Z,101154.69
2022-12-26T03:44:41.040Z,101154.69
2022-12-26T03:47:54.737Z,101151.13
2022-12-26T03:51:01.087Z,101153.94
2022-12-26T03:53:53.281Z,101148.78
2022-12-26T03:56:52.527Z,101156.97
2022-12-26T03:59:47.595Z,101158.03
2022-12-26T04:02:34.245Z,101157.44
2022-12-26T04:05:24.412Z,101156.56
2022-12-26T04:08:18.499Z,101167.28
2022-12-26T04:11:09.606Z,101170.75
2022-12-26T04:14:15.439Z,101170.75
2022-12-26T04:17:55.630Z,101182.22
2022-12-26T04:20:41.028Z,101179.53
2022-12-26T04:23:30.823Z,101179.41
2022-12-26T04:26:27.734Z,101179.09
2022-12-26T04:29:13.278Z,101191.53
2022-12-26T04:32:08.412Z,101187.06
2022-12-26T04:35:09.727Z,101187.91
2022-12-26T04:38:01.768Z,101188.13
2022-12-26T04:40:51.334Z,101190.81
2022-12-26T04:43:49.014Z,101195.22
2022-12-26T04:46:19.492Z,101192.63
2022-12-26T04:49:07.106Z,101187.25
2022-12-26T04:51:34.155Z,101199.00
2022-12-26T04:54:01.131Z,101195.44
2022-12-26T04:56:27.766Z,101199.84
2022-12-26T04:58:54.549Z,101207.66
2022-12-26T05:01:39.864Z,101202.41
2022-12-26T05:04:25.697Z,101208.75
2022-12-26T05:07:10.925Z,101199.72
2022-12-26T05:09:37.827Z,101199.72
2022-12-26T05:12:06.951Z,101206.81
2022-12-26T05:14:36.116Z,101200.50
2022-12-26T05:17:23.102Z,101199.41
2022-12-26T05:20:08.687Z,101202.81
2022-12-26T05:22:57.349Z,101202.72
2022-12-26T05:25:58.704Z,101207.25
2022-12-26T05:28:43.444Z,101218.50
2022-12-26T05:31:13.488Z,101219.47
2022-12-26T05:33:59.171Z,101218.59
2022-12-26T05:36:29.178Z,101213.56
2022-12-26T05:38:56.300Z,101224.31
2022-12-26T05:41:24.299Z,101219.91
2022-12-26T05:43:51.095Z,101221.97
2022-12-26T05:46:17.835Z,101223.06
2022-12-26T05:48:44.586Z,101229.41
2022-12-26T05:51:12.593Z,101231.34
2022-12-26T05:53:39.392Z,101229.41
2022-12-26T05:56:14.210Z,101241.88
2022-12-26T05:58:41.216Z,101240.13
2022-12-26T06:01:09.521Z,101248.31
2022-12-26T06:03:36.949Z,101240.25
2022-12-26T06:06:05.330Z,101239.41
2022-12-26T06:08:32.646Z,101235.63
2022-12-26T06:10:59.420Z,101235.53
2022-12-26T06:13:26.095Z,101238.22
2022-12-26T06:15:52.825Z,101236.38
2022-12-26T06:18:19.997Z,101238.22
2022-12-26T06:20:46.687Z,101242.59
2022-12-26T06:23:13.386Z,101247.84
2022-12-26T06:25:40.220Z,101252.38
2022-12-26T06:28:06.919Z,101246.06
2022-12-26T06:30:33.661Z,101251.19
2022-12-26T06:33:00.482Z,101259.03
2022-12-26T06:35:27.129Z,101256.44
2022-12-26T06:37:53.762Z,101254.72
2022-12-26T06:40:20.654Z,101257.31
2022-12-26T06:42:47.261Z,101261.72
2022-12-26T06:45:14.001Z,101265.28
2022-12-26T06:47:40.875Z,101267.75
2022-12-26T06:50:07.792Z,101256.13
2022-12-26T06:52:34.480Z,101257.72
2022-12-26T06:55:02.143Z,101274.72
2022-12-26T06:57:28.753Z,101276.53
2022-12-26T06:59:55.402Z,101279.09
2022-12-26T07:02:22.406Z,101270.09
2022-12-26T07:04:49.115Z,101269.13
2022-12-26T07:07:15.768Z,101281.59
2022-12-26T07:09:42.705Z,101291.16
2022-12-26T07:12:09.331Z,101295.53
2022-12-26T07:14:36.703Z,101298.47
2022-12-26T07:17:03.608Z,101305.69
2022-12-26T07:19:30.228Z,101306.53
2022-12-26T07:21:56.860Z,101309.97
2022-12-26T07:24:23.965Z,101307.38
2022-12-26T07:26:50.767Z,101298.22
2022-12-26T07:29:17.916Z,101317.94
2022-12-26T07:31:45.040Z,101307.28
2022-12-26T07:34:11.882Z,101317.03
2022-12-26T07:36:38.521Z,101322.41
2022-12-26T07:39:05.317Z,101324.25
2022-12-26T07:41:51.762Z,101326.09
2022-12-26T07:44:18.547Z,101314.81
2022-12-26T07:46:46.821Z,101321.16
2022-12-26T07:49:13.752Z,101331.69
2022-12-26T07:51:41.456Z,101324.59
2022-12-26T07:54:11.321Z,101325.69
2022-12-26T07:56:39.440Z,101324.81
2022-12-26T07:59:06.218Z,101317.91
2022-12-26T08:01:33.057Z,101328.69
2022-12-26T08:04:00.074Z,101323.22
2022-12-26T08:06:27.937Z,101326.53
2022-12-26T08:08:54.584Z,101337.06
2022-12-26T08:11:24.024Z,101336.09
2022-12-26T08:13:52.150Z,101330.19
2022-12-26T08:16:19.838Z,101339.84
2022-12-26T08:18:46.607Z,101346.09
2022-12-26T08:21:14.024Z,101342.53
2022-12-26T08:23:41.173Z,101343.41
2022-12-26T08:26:13.156Z,101352.22
2022-12-26T08:28:39.943Z,101352.97
2022-12-26T08:31:07.919Z,101359.31
2022-12-26T08:33:35.716Z,101361.25
2022-12-26T08:36:07.315Z,101349.53
2022-12-26T08:38:34.346Z,101349.41
2022-12-26T08:41:01.246Z,101358.38
2022-12-26T08:44:03.480Z,101358.13
2022-12-26T08:46:15.125Z,101360.81
2022-12-26T08:48:42.236Z,101361.56
2022-12-26T08:51:15.979Z,101364.03
2022-12-26T08:53:43.599Z,101365.63
2022-12-26T08:56:16.941Z,101367.47
2022-12-26T08:58:44.167Z,101371.91
2022-12-26T09:01:15.455Z,101371.78
2022-12-26T09:03:43.370Z,101372.41
2022-12-26T09:06:12.241Z,101382.84
2022-12-26T09:08:39.723Z,101379.28
2022-12-26T09:11:18.322Z,101369.28
2022-12-26T09:13:47.047Z,101365.84
2022-12-26T09:16:24.959Z,101376.38
2022-12-26T09:18:56.404Z,101385.94
2022-12-26T09:21:23.648Z,101391.84
2022-12-26T09:23:50.368Z,101406.78
2022-12-26T09:26:19.832Z,101403.88
2022-12-26T09:28:47.412Z,101394.50
2022-12-26T09:31:23.467Z,101401.06
2022-12-26T09:33:50.636Z,101402.69
2022-12-26T09:36:24.343Z,101418.69
2022-12-26T09:38:52.206Z,101407.72
2022-12-26T09:41:21.513Z,101425.59
2022-12-26T09:43:51.265Z,101415.66
2022-12-26T09:46:24.394Z,101436.13
2022-12-26T09:49:06.693Z,101430.72
2022-12-26T09:51:36.468Z,101437.94
2022-12-26T09:54:07.770Z,101436.34
2022-12-26T09:57:02.234Z,101451.00
2022-12-26T09:59:26.436Z,101445.81
2022-12-26T10:01:53.846Z,101456.78
2022-12-26T10:04:29.015Z,101441.63
2022-12-26T10:07:00.267Z,101435.50
2022-12-26T10:09:45.351Z,101444.53
2022-12-26T10:12:42.788Z,101443.47
2022-12-26T10:15:48.815Z,101447.00
2022-12-26T10:18:30.146Z,101453.16
2022-12-26T10:21:05.640Z,101454.00
2022-12-26T10:23:45.938Z,101451.94
2022-12-26T10:26:19.491Z,101458.84
2022-12-26T10:28:54.663Z,101463.03
2022-12-26T10:31:35.035Z,101463.63
2022-12-26T10:34:28.106Z,101449.00
2022-12-26T10:37:00.494Z,101466.53
2022-12-26T10:39:40.142Z,101461.44
2022-12-26T10:42:30.955Z,101472.00
2022-12-26T10:44:58.981Z,101469.94
2022-12-26T10:47:39.220Z,101476.94
2022-12-26T10:50:06.708Z,101467.78
2022-12-26T10:52:38.628Z,101486.38
2022-12-26T10:55:28.680Z,101469.16
2022-12-26T10:57:54.585Z,101477.84
2022-12-26T11:00:24.645Z,101474.94
2022-12-26T11:03:17.361Z,101481.19
2022-12-26T11:06:12.102Z,101471.25
2022-12-26T11:08:46.836Z,101478.03
2022-12-26T11:11:21.036Z,101466.06
2022-12-26T11:13:52.568Z,101477.34
2022-12-26T11:16:35.581Z,101469.03
2022-12-26T11:19:02.863Z,101470.53
2022-12-26T11:21:32.233Z,101467.81
2022-12-26T11:24:20.004Z,101478.38
2022-12-26T11:26:47.254Z,101475.78
2022-12-26T11:29:26.933Z,101486.69
2022-12-26T11:31:59.597Z,101479.59
2022-12-26T11:34:30.028Z,101473.56
2022-12-26T11:36:56.747Z,101477.22
2022-12-26T11:39:31.262Z,101472.72
2022-12-26T11:41:58.368Z,101481.66
2022-12-26T11:44:35.353Z,101479.69
2022-12-26T11:47:11.955Z,101486.06
2022-12-26T11:49:59.164Z,101473.44
2022-12-26T11:52:35.107Z,101482.50
2022-12-26T11:55:24.530Z,101473.44
2022-12-26T11:58:10.333Z,101478.59
2022-12-26T12:00:42.888Z,101479.25
2022-12-26T12:03:18.427Z,101485.25
2022-12-26T12:06:07.650Z,101492.38
2022-12-26T12:09:06.155Z,101504.75
2022-12-26T12:11:44.645Z,101506.25
2022-12-26T12:14:36.171Z,101499.75
2022-12-26T12:17:29.879Z,101503.19
2022-12-26T12:20:35.285Z,101487.78
2022-12-26T12:23:31.847Z,101488.50
2022-12-26T12:26:05.732Z,101497.59
2022-12-26T12:28:42.780Z,101501.84
2022-12-26T12:31:12.430Z,101504.44
2022-12-26T12:34:07.975Z,101490.97
2022-12-26T12:37:03.099Z,101508.97
2022-12-26T12:40:19.341Z,101508.00
2022-12-26T12:42:54.879Z,101508.84
2022-12-26T12:45:40.431Z,101518.66
2022-12-26T12:48:19.079Z,101522.97
2022-12-26T12:50:54.653Z,101516.63
2022-12-26T12:53:47.122Z,101510.22
2022-12-26T12:56:19.507Z,101507.41
2022-12-26T12:58:52.464Z,101505.47
2022-12-26T13:01:25.001Z,101508.06
2022-12-26T13:04:01.272Z,101518.72
2022-12-26T13:06:53.861Z,101509.66
2022-12-26T13:09:46.220Z,101509.31
2022-12-26T13:12:23.494Z,101530.06
2022-12-26T13:14:59.782Z,101503.81
2022-12-26T13:17:48.879Z,101510.34
2022-12-26T13:20:23.769Z,101512.03
2022-12-26T13:23:14.801Z,101511.91
2022-12-26T13:25:46.234Z,101516.31
2022-12-26T13:28:20.217Z,101509.09
2022-12-26T13:30:53.267Z,101510.94
2022-12-26T13:33:19.927Z,101520.88
2022-12-26T13:35:59.691Z,101524.41
2022-12-26T13:38:58.335Z,101506.38
2022-12-26T13:41:44.858Z,101516.09
2022-12-26T13:44:20.687Z,101517.81
2022-12-26T13:46:47.398Z,101515.75
2022-12-26T13:49:43.249Z,101519.31
2022-12-26T13:52:14.979Z,101524.59
2022-12-26T13:54:47.877Z,101524.47
2022-12-26T13:57:28.813Z,101531.38
2022-12-26T14:00:15.417Z,101540.00
2022-12-26T14:03:20.416Z,101533.00
2022-12-26T14:06:07.966Z,101535.09
2022-12-26T14:09:20.823Z,101520.25
2022-12-26T14:11:55.409Z,101522.56
2022-12-26T14:14:34.097Z,101525.25
2022-12-26T14:17:27.594Z,101524.16
2022-12-26T14:20:06.618Z,101532.50
2022-12-26T14:23:05.901Z,101530.88
2022-12-26T14:25:44.745Z,101528.22
2022-12-26T14:28:36.586Z,101539.25
2022-12-26T14:31:30.048Z,101542.09
2022-12-26T14:34:15.238Z,101548.22
2022-12-26T14:36:48.867Z,101542.22
2022-12-26T14:39:21.500Z,101547.38
2022-12-26T14:42:25.469Z,101550.56
2022-12-26T14:44:54.252Z,101564.66
2022-12-26T14:47:43.094Z,101577.91
2022-12-26T14:50:37.684Z,101572.28
2022-12-26T14:53:29.388Z,101580.16
2022-12-26T14:56:24.381Z,101583.22
2022-12-26T14:59:12.300Z,101586.91
2022-12-26T15:01:38.921Z,101572.16
2022-12-26T15:04:20.908Z,101576.22
2022-12-26T15:06:56.616Z,101568.19
2022-12-26T15:09:51.487Z,101574.22
2022-12-26T15:12:39.348Z,101570.50
2022-12-26T15:15:28.547Z,101585.81
2022-12-26T15:18:03.989Z,101593.41
2022-12-26T15:20:58.590Z,101600.75
2022-12-26T15:23:49.759Z,101598.31
2022-12-26T15:26:42.250Z,101601.47
2022-12-26T15:29:20.945Z,101587.56
2022-12-26T15:31:50.597Z,101600.44
2022-12-26T15:34:35.451Z,101590.50
2022-12-26T15:37:17.458Z,101613.06
2022-12-26T15:40:12.253Z,101612.19
2022-12-26T15:43:02.667Z,101605.31
2022-12-26T15:45:34.285Z,101607.50
2022-12-26T15:48:12.766Z,101622.28
2022-12-26T15:50:45.155Z,101630.72
2022-12-26T15:53:49.450Z,101627.31
2022-12-26T15:56:53.572Z,101637.44
2022-12-26T15:59:59.100Z,101640.69
2022-12-26T16:02:25.845Z,101643.84
2022-12-26T16:05:00.731Z,101659.50
2022-12-26T16:07:52.283Z,101658.22
2022-12-26T16:10:25.653Z,101663.00
2022-12-26T16:13:04.293Z,101650.59
2022-12-26T16:15:33.059Z,101655.44
2022-12-26T16:18:22.691Z,101649.31
2022-12-26T16:21:18.507Z,101662.97
2022-12-26T16:23:46.894Z,101654.06
2022-12-26T16:26:26.601Z,101652.66
2022-12-26T16:28:54.775Z,101658.47
2022-12-26T16:31:24.869Z,101658.47
2022-12-26T16:33:54.451Z,101676.59
2022-12-26T16:36:26.565Z,101669.69
2022-12-26T16:38:54.365Z,101670.53
2022-12-26T16:41:32.707Z,101682.31
2022-12-26T16:44:30.837Z,101683.03
2022-12-26T16:47:02.207Z,101678.72
2022-12-26T16:49:32.141Z,101685.84
2022-12-26T16:51:59.004Z,101686.94
2022-12-26T16:54:40.493Z,101691.34
2022-12-26T16:57:19.702Z,101684.13
2022-12-26T16:59:58.821Z,101704.59
2022-12-26T17:02:30.395Z,101713.56
2022-12-26T17:05:22.232Z,101711.72
2022-12-26T17:07:51.574Z,101723.34
2022-12-26T17:10:38.185Z,101720.00
2022-12-26T17:13:09.124Z,101713.00
2022-12-26T17:15:39.958Z,101719.56
2022-12-26T17:18:31.552Z,101723.34
2022-12-26T17:21:17.107Z,101728.63
2022-12-26T17:23:44.289Z,101732.38
2022-12-26T17:26:26.579Z,101740.34
2022-12-26T17:28:53.747Z,101736.69
2022-12-26T17:31:40.986Z,101745.72
2022-12-26T17:34:25.862Z,101745.72
2022-12-26T17:37:18.332Z,101757.59
2022-12-26T17:39:40.514Z,101767.50
2022-12-26T17:42:07.775Z,101772.88
2022-12-26T17:44:43.304Z,101770.19
2022-12-26T17:47:21.542Z,101771.59
2022-12-26T17:49:49.926Z,101790.78
2022-12-26T17:52:20.545Z,101790.38
2022-12-26T17:54:49.475Z,101786.38
2022-12-26T17:57:25.435Z,101795.97
2022-12-26T17:59:53.050Z,101790.47
2022-12-26T18:02:20.601Z,101790.59
2022-12-26T18:04:48.201Z,101776.69
2022-12-26T18:07:31.050Z,101779.91
2022-12-26T18:09:58.946Z,101783.97
2022-12-26T18:12:25.773Z,101788.06
2022-12-26T18:14:57.558Z,101795.28
2022-12-26T18:17:29.464Z,101791.84
2022-12-26T18:19:57.756Z,101800.97
2022-12-26T18:22:24.456Z,101811.84
2022-12-26T18:24:51.384Z,101822.50
2022-12-26T18:27:21.036Z,101825.97
2022-12-26T18:29:49.656Z,101829.63
2022-12-26T18:32:27.122Z,101835.97
2022-12-26T18:34:54.368Z,101828.84
2022-12-26T18:37:23.480Z,101831.66
2022-12-26T18:39:50.206Z,101836.09
2022-12-26T18:42:18.109Z,101835.75
2022-12-26T18:44:45.177Z,101841.59
2022-12-26T18:47:19.741Z,101835.91
2022-12-26T18:49:46.531Z,101842.06
2022-12-26T18:52:17.488Z,101849.81
2022-12-26T18:54:45.651Z,101841.53
2022-12-26T18:57:18.643Z,101852.41
2022-12-26T18:59:45.439Z,101857.16
2022-12-26T19:02:17.420Z,101850.34
2022-12-26T19:04:44.458Z,101854.84
2022-12-26T19:07:11.389Z,101859.50
2022-12-26T19:09:42.928Z,101858.94
2022-12-26T19:12:09.594Z,101855.78
2022-12-26T19:14:36.333Z,101857.84
2022-12-26T19:17:03.073Z,101857.28
2022-12-26T19:19:31.806Z,101870.84
2022-12-26T19:21:58.705Z,101870.19
2022-12-26T19:24:25.511Z,101869.31
2022-12-26T19:26:52.232Z,101877.50
2022-12-26T19:29:18.916Z,101876.81
2022-12-26T19:31:45.878Z,101884.16
2022-12-26T19:34:12.737Z,101881.66
2022-12-26T19:36:40.017Z,101878.09
2022-12-26T19:39:06.796Z,101879.94
2022-12-26T19:41:33.438Z,101872.81
2022-12-26T19:44:01.198Z,101881.00
2022-12-26T19:46:28.642Z,101876.66
2022-12-26T19:48:55.592Z,101879.56
2022-12-26T19:51:22.907Z,101875.44
2022-12-26T19:53:50.506Z,101879.19
2022-12-26T19:56:22.998Z,101874.97
2022-12-26T19:58:56.098Z,101882.00
2022-12-26T20:01:26.561Z,101881.25
2022-12-26T20:04:02.410Z,101882.31
2022-12-26T20:06:32.645Z,101882.31
2022-12-26T20:09:01.452Z,101883.16
2022-12-26T20:11:31.719Z,101892.09
2022-12-26T20:14:00.628Z,101892.09
2022-12-26T20:19:15.392Z,101888.44
2022-12-26T20:21:42.020Z,101892.19
2022-12-26T20:24:11.310Z,101898.44
2022-12-26T20:26:38.438Z,101902.94
2022-12-26T20:29:05.134Z,101904.03
2022-12-26T20:31:33.084Z,101898.66
2022-12-26T20:34:00.720Z,101902.28
2022-12-26T20:36:30.049Z,101906.72
2022-12-26T20:39:05.322Z,101906.72
2022-12-26T20:41:32.391Z,101900.56
2022-12-26T20:43:59.155Z,101905.94
2022-12-26T20:46:29.168Z,101911.53
2022-12-26T20:48:56.109Z,101911.81
2022-12-26T20:51:25.561Z,101920.94
2022-12-26T20:53:53.858Z,101920.25
2022-12-26T20:56:20.606Z,101936.41
2022-12-26T20:58:47.371Z,101940.94
2022-12-26T21:01:16.723Z,101937.34
2022-12-26T21:03:43.739Z,101934.84
2022-12-26T21:06:24.063Z,101939.19
2022-12-26T21:08:52.926Z,101935.75
2022-12-26T21:11:24.228Z,101930.44
2022-12-26T21:13:52.634Z,101930.53
2022-12-26T21:16:23.578Z,101927.75
2022-12-26T21:18:51.161Z,101934.22
2022-12-26T21:21:30.461Z,101933.53
2022-12-26T21:24:03.147Z,101943.44
2022-12-26T21:26:30.219Z,101933.72
2022-12-26T21:28:59.910Z,101938.22
2022-12-26T21:31:27.692Z,101946.28
2022-12-26T21:33:59.457Z,101945.53
2022-12-26T21:36:27.408Z,101945.72
2022-12-26T21:38:55.387Z,101941.28
2022-12-26T21:41:22.583Z,101944.00
2022-12-26T21:43:49.800Z,101952.06
2022-12-26T21:46:18.851Z,101950.41
2022-12-26T21:48:50.391Z,101955.88
2022-12-26T21:51:18.744Z,101959.53
2022-12-26T21:53:46.256Z,101958.56
2022-12-26T21:56:15.421Z,101954.94
2022-12-26T21:59:01.258Z,101959.44
2022-12-26T22:01:29.121Z,101955.03
2022-12-26T22:04:15.152Z,101966.66
2022-12-26T22:06:42.907Z,101966.34
2022-12-26T22:09:10.331Z,101959.06
2022-12-26T22:12:10.264Z,101955.44
2022-12-26T22:14:36.931Z,101958.19
2022-12-26T22:17:03.562Z,101956.47
2022-12-26T22:19:30.469Z,101963.41
2022-12-26T22:21:57.402Z,101960.72
2022-12-26T22:24:24.034Z,101958.19
2022-12-26T22:26:50.849Z,101962.72
2022-12-26T22:29:17.626Z,101961.06
2022-12-26T22:31:44.361Z,101961.16
2022-12-26T22:34:13.364Z,101968.38
2022-12-26T22:36:41.006Z,101963.09
2022-12-26T22:39:08.027Z,101956.84
2022-12-26T22:41:35.589Z,101960.31
2022-12-26T22:44:02.611Z,101957.53
2022-12-26T22:46:29.544Z,101970.88
2022-12-26T22:48:56.535Z,101968.94
2022-12-26T22:51:25.485Z,101968.09
2022-12-26T22:53:56.898Z,101969.94
2022-12-26T22:56:24.164Z,101970.03
2022-12-26T22:59:03.101Z,101968.28
2022-12-26T23:01:30.475Z,101973.56
2022-12-26T23:03:57.562Z,101971.72
2022-12-26T23:06:30.064Z,101978.84
2022-12-26T23:08:59.432Z,101979.69
2022-12-26T23:11:34.658Z,101988.84
2022-12-26T23:14:05.002Z,101983.56
2022-12-26T23:16:56.471Z,101992.38
2022-12-26T23:19:56.865Z,101990.75
2022-12-26T23:22:23.819Z,101985.16
2022-12-26T23:24:50.685Z,101980.78
2022-12-26T23:27:37.827Z,101982.69
2022-12-26T23:30:20.781Z,101988.06
2022-12-26T23:32:51.361Z,101987.28
2022-12-26T23:35:20.283Z,101989.09
2022-12-26T23:37:47.039Z,101982.03
2022-12-26T23:40:15.847Z,101984.72
2022-12-26T23:42:42.878Z,101984.13
2022-12-26T23:45:11.284Z,101984.00
2022-12-26T23:47:40.274Z,101984.97
2022-12-26T23:50:09.037Z,101989.50
2022-12-26T23:52:36.630Z,101994.78
2022-12-26T23:55:04.183Z,102002.84
2022-12-26T23:57:30.879Z,102003.53
2022-12-26T23:59:57.509Z,101991.78
